sensor_id;sensor_type;location;lat;lon;timestamp;P1;durP1;ratioP1;P2;durP2;ratioP2
57718;SDS011;43561;50.090;18.522;2022-10-16T00:08:34;23.83;;;14.45;;
57718;SDS011;43561;50.090;18.522;2022-10-16T00:18:37;25.15;;;13.40;;
57718;SDS011;43561;50.090;18.522;2022-10-16T00:28:39;25.00;;;15.45;;
57718;SDS011;43561;50.090;18.522;2022-10-16T00:38:41;25.45;;;13.20;;
57718;SDS011;43561;50.090;18.522;2022-10-16T00:48:51;26.58;;;13.25;;
57718;SDS011;43561;50.090;18.522;2022-10-16T00:59:06;27.77;;;16.67;;
57718;SDS011;43561;50.090;18.522;2022-10-16T01:09:23;36.67;;;18.03;;
57718;SDS011;43561;50.090;18.522;2022-10-16T01:29:54;27.33;;;17.13;;
57718;SDS011;43561;50.090;18.522;2022-10-16T01:50:07;19.75;;;13.20;;
57718;SDS011;43561;50.090;18.522;2022-10-16T02:00:10;25.65;;;14.80;;
57718;SDS011;43561;50.090;18.522;2022-10-16T02:10:14;24.77;;;16.20;;
57718;SDS011;43561;50.090;18.522;2022-10-16T02:20:18;30.17;;;14.93;;
57718;SDS011;43561;50.090;18.522;2022-10-16T02:30:45;33.83;;;16.75;;
57718;SDS011;43561;50.090;18.522;2022-10-16T02:40:47;36.38;;;16.77;;
57718;SDS011;43561;50.090;18.522;2022-10-16T02:50:50;31.77;;;16.50;;
57718;SDS011;43561;50.090;18.522;2022-10-16T03:00:52;28.20;;;15.07;;
57718;SDS011;43561;50.090;18.522;2022-10-16T03:10:54;28.77;;;13.75;;
57718;SDS011;43561;50.090;18.522;2022-10-16T03:20:56;35.28;;;16.70;;
57718;SDS011;43561;50.090;18.522;2022-10-16T03:30:57;31.58;;;17.85;;
57718;SDS011;43561;50.090;18.522;2022-10-16T03:40:59;24.48;;;13.85;;
57718;SDS011;43561;50.090;18.522;2022-10-16T03:51:01;31.17;;;16.83;;
57718;SDS011;43561;50.090;18.522;2022-10-16T04:01:04;26.42;;;16.00;;
57718;SDS011;43561;50.090;18.522;2022-10-16T04:11:06;26.83;;;14.40;;
57718;SDS011;43561;50.090;18.522;2022-10-16T04:21:08;25.33;;;13.25;;
57718;SDS011;43561;50.090;18.522;2022-10-16T04:31:10;19.95;;;12.75;;
57718;SDS011;43561;50.090;18.522;2022-10-16T04:41:12;28.15;;;13.35;;
57718;SDS011;43561;50.090;18.522;2022-10-16T04:51:14;28.40;;;16.52;;
57718;SDS011;43561;50.090;18.522;2022-10-16T05:01:16;37.45;;;19.67;;
57718;SDS011;43561;50.090;18.522;2022-10-16T05:11:17;22.48;;;12.48;;
57718;SDS011;43561;50.090;18.522;2022-10-16T05:21:20;18.88;;;11.50;;
57718;SDS011;43561;50.090;18.522;2022-10-16T05:31:22;28.85;;;13.93;;
57718;SDS011;43561;50.090;18.522;2022-10-16T05:41:24;32.15;;;20.42;;
57718;SDS011;43561;50.090;18.522;2022-10-16T05:51:25;41.65;;;23.35;;
57718;SDS011;43561;50.090;18.522;2022-10-16T06:01:28;33.00;;;18.67;;
57718;SDS011;43561;50.090;18.522;2022-10-16T06:11:30;38.90;;;22.48;;
57718;SDS011;43561;50.090;18.522;2022-10-16T06:21:33;42.65;;;21.88;;
57718;SDS011;43561;50.090;18.522;2022-10-16T06:31:35;39.28;;;20.20;;
57718;SDS011;43561;50.090;18.522;2022-10-16T06:41:37;32.78;;;18.38;;
57718;SDS011;43561;50.090;18.522;2022-10-16T06:51:49;34.63;;;18.63;;
57718;SDS011;43561;50.090;18.522;2022-10-16T07:01:51;41.55;;;19.65;;
57718;SDS011;43561;50.090;18.522;2022-10-16T07:11:53;28.75;;;14.07;;
57718;SDS011;43561;50.090;18.522;2022-10-16T07:21:55;25.35;;;16.00;;
57718;SDS011;43561;50.090;18.522;2022-10-16T07:32:10;43.03;;;24.13;;
57718;SDS011;43561;50.090;18.522;2022-10-16T07:42:13;42.42;;;22.30;;
57718;SDS011;43561;50.090;18.522;2022-10-16T07:52:15;43.80;;;25.48;;
57718;SDS011;43561;50.090;18.522;2022-10-16T08:02:17;59.72;;;29.60;;
57718;SDS011;43561;50.090;18.522;2022-10-16T08:12:20;20.75;;;12.73;;
57718;SDS011;43561;50.090;18.522;2022-10-16T08:22:22;24.38;;;14.70;;
57718;SDS011;43561;50.090;18.522;2022-10-16T08:32:24;27.23;;;16.15;;
57718;SDS011;43561;50.090;18.522;2022-10-16T08:53:34;31.85;;;21.02;;
57718;SDS011;43561;50.090;18.522;2022-10-16T09:24:40;24.10;;;14.27;;
57718;SDS011;43561;50.090;18.522;2022-10-16T09:34:42;26.73;;;14.77;;
57718;SDS011;43561;50.090;18.522;2022-10-16T09:55:51;19.25;;;13.77;;
57718;SDS011;43561;50.090;18.522;2022-10-16T10:05:54;14.93;;;10.75;;
57718;SDS011;43561;50.090;18.522;2022-10-16T10:16:05;44.17;;;26.48;;
57718;SDS011;43561;50.090;18.522;2022-10-16T10:26:12;22.55;;;16.20;;
57718;SDS011;43561;50.090;18.522;2022-10-16T10:46:48;20.85;;;12.95;;
57718;SDS011;43561;50.090;18.522;2022-10-16T10:56:59;18.02;;;12.85;;
57718;SDS011;43561;50.090;18.522;2022-10-16T11:07:24;22.27;;;12.48;;
57718;SDS011;43561;50.090;18.522;2022-10-16T11:17:35;17.70;;;10.48;;
57718;SDS011;43561;50.090;18.522;2022-10-16T11:27:51;22.95;;;12.98;;
57718;SDS011;43561;50.090;18.522;2022-10-16T11:59:14;13.65;;;11.07;;
57718;SDS011;43561;50.090;18.522;2022-10-16T12:09:32;16.05;;;9.10;;
57718;SDS011;43561;50.090;18.522;2022-10-16T12:19:36;15.60;;;11.47;;
57718;SDS011;43561;50.090;18.522;2022-10-16T12:29:40;11.15;;;9.02;;
57718;SDS011;43561;50.090;18.522;2022-10-16T12:39:45;12.30;;;8.60;;
57718;SDS011;43561;50.090;18.522;2022-10-16T12:49:53;13.52;;;9.15;;
57718;SDS011;43561;50.090;18.522;2022-10-16T13:10:28;18.92;;;10.98;;
57718;SDS011;43561;50.090;18.522;2022-10-16T13:31:37;13.95;;;9.77;;
57718;SDS011;43561;50.090;18.522;2022-10-16T13:41:40;16.55;;;9.82;;
57718;SDS011;43561;50.090;18.522;2022-10-16T13:52:00;18.98;;;13.73;;
57718;SDS011;43561;50.090;18.522;2022-10-16T14:02:05;16.27;;;10.07;;
57718;SDS011;43561;50.090;18.522;2022-10-16T14:12:33;19.67;;;11.07;;
57718;SDS011;43561;50.090;18.522;2022-10-16T14:22:39;18.27;;;11.45;;
57718;SDS011;43561;50.090;18.522;2022-10-16T14:32:52;17.05;;;10.77;;
57718;SDS011;43561;50.090;18.522;2022-10-16T14:43:30;15.75;;;10.18;;
57718;SDS011;43561;50.090;18.522;2022-10-16T14:53:40;18.05;;;9.73;;
57718;SDS011;43561;50.090;18.522;2022-10-16T15:03:42;14.93;;;10.38;;
57718;SDS011;43561;50.090;18.522;2022-10-16T15:13:45;23.40;;;12.63;;
57718;SDS011;43561;50.090;18.522;2022-10-16T15:23:49;17.75;;;10.82;;
57718;SDS011;43561;50.090;18.522;2022-10-16T15:33:52;19.90;;;13.02;;
57718;SDS011;43561;50.090;18.522;2022-10-16T15:43:54;30.23;;;16.67;;
57718;SDS011;43561;50.090;18.522;2022-10-16T15:53:56;26.83;;;14.23;;
57718;SDS011;43561;50.090;18.522;2022-10-16T16:03:58;20.38;;;15.80;;
57718;SDS011;43561;50.090;18.522;2022-10-16T16:14:00;20.35;;;14.75;;
57718;SDS011;43561;50.090;18.522;2022-10-16T16:24:02;39.38;;;21.10;;
57718;SDS011;43561;50.090;18.522;2022-10-16T16:34:04;39.88;;;22.27;;
57718;SDS011;43561;50.090;18.522;2022-10-16T16:44:07;33.47;;;21.83;;
57718;SDS011;43561;50.090;18.522;2022-10-16T16:54:11;45.28;;;22.77;;
57718;SDS011;43561;50.090;18.522;2022-10-16T17:04:13;45.90;;;21.33;;
57718;SDS011;43561;50.090;18.522;2022-10-16T17:14:21;43.97;;;23.77;;
57718;SDS011;43561;50.090;18.522;2022-10-16T17:24:23;83.13;;;36.95;;
57718;SDS011;43561;50.090;18.522;2022-10-16T17:34:25;62.65;;;32.20;;
57718;SDS011;43561;50.090;18.522;2022-10-16T17:44:28;44.83;;;23.50;;
57718;SDS011;43561;50.090;18.522;2022-10-16T17:54:33;34.10;;;21.42;;
57718;SDS011;43561;50.090;18.522;2022-10-16T18:04:39;41.65;;;21.55;;
57718;SDS011;43561;50.090;18.522;2022-10-16T18:14:41;37.20;;;19.60;;
57718;SDS011;43561;50.090;18.522;2022-10-16T18:24:48;33.72;;;19.90;;
57718;SDS011;43561;50.090;18.522;2022-10-16T18:35:09;34.60;;;17.77;;
57718;SDS011;43561;50.090;18.522;2022-10-16T18:45:13;24.27;;;16.63;;
57718;SDS011;43561;50.090;18.522;2022-10-16T18:55:15;30.85;;;17.83;;
57718;SDS011;43561;50.090;18.522;2022-10-16T19:05:18;26.80;;;16.20;;
57718;SDS011;43561;50.090;18.522;2022-10-16T19:15:20;27.08;;;16.48;;
57718;SDS011;43561;50.090;18.522;2022-10-16T19:25:21;27.27;;;16.83;;
57718;SDS011;43561;50.090;18.522;2022-10-16T19:35:24;26.42;;;16.77;;
57718;SDS011;43561;50.090;18.522;2022-10-16T19:45:26;34.25;;;18.42;;
57718;SDS011;43561;50.090;18.522;2022-10-16T19:55:29;53.40;;;24.23;;
57718;SDS011;43561;50.090;18.522;2022-10-16T20:05:32;39.28;;;22.10;;
57718;SDS011;43561;50.090;18.522;2022-10-16T20:15:35;33.00;;;21.20;;
57718;SDS011;43561;50.090;18.522;2022-10-16T20:25:41;31.88;;;17.90;;
57718;SDS011;43561;50.090;18.522;2022-10-16T20:35:46;37.90;;;17.60;;
57718;SDS011;43561;50.090;18.522;2022-10-16T20:45:57;47.65;;;24.92;;
57718;SDS011;43561;50.090;18.522;2022-10-16T20:56:00;38.08;;;22.10;;
57718;SDS011;43561;50.090;18.522;2022-10-16T21:06:05;39.50;;;20.98;;
57718;SDS011;43561;50.090;18.522;2022-10-16T21:16:16;40.63;;;21.83;;
57718;SDS011;43561;50.090;18.522;2022-10-16T21:26:20;45.75;;;22.15;;
57718;SDS011;43561;50.090;18.522;2022-10-16T21:36:33;37.55;;;23.58;;
57718;SDS011;43561;50.090;18.522;2022-10-16T21:46:38;48.22;;;24.98;;
57718;SDS011;43561;50.090;18.522;2022-10-16T21:56:41;36.70;;;19.30;;
57718;SDS011;43561;50.090;18.522;2022-10-16T22:06:43;42.00;;;21.90;;
57718;SDS011;43561;50.090;18.522;2022-10-16T22:16:48;35.33;;;20.15;;
57718;SDS011;43561;50.090;18.522;2022-10-16T22:26:50;39.10;;;20.02;;
57718;SDS011;43561;50.090;18.522;2022-10-16T22:36:52;35.90;;;19.50;;
57718;SDS011;43561;50.090;18.522;2022-10-16T22:46:54;26.50;;;16.50;;
57718;SDS011;43561;50.090;18.522;2022-10-16T22:56:57;30.08;;;19.65;;
57718;SDS011;43561;50.090;18.522;2022-10-16T23:06:59;40.08;;;19.90;;
57718;SDS011;43561;50.090;18.522;2022-10-16T23:17:01;30.90;;;18.20;;
57718;SDS011;43561;50.090;18.522;2022-10-16T23:37:23;40.58;;;23.02;;
57718;SDS011;43561;50.090;18.522;2022-10-16T23:57:53;39.20;;;18.23;;
